Time;durP1;ratioP1;P1;durP2;ratioP2;P2;SDS_P1;SDS_P2;PMS_P1;PMS_P2;Temp;Humidity;BMP_temperature;BMP_pressure;BME280_temperature;BME280_humidity;BME280_pressure;Samples;Min_cycle;Max_cycle;Signal;HPM_P1;HPM_P2
2021/08/08 00:00:00;;;;;;;3.38;1.88;;;;;;;;;;8227216;28;20480;-73
2021/08/08 00:04:14;;;;;;;3.78;1.85;;;;;;;;;;8243181;28;20122;-73
2021/08/08 00:08:21;;;;;;;2.58;1.42;;;;;;;;;;8260463;28;20468;-73
2021/08/08 00:12:26;;;;;;;3.20;1.63;;;;;;;;;;8257625;28;20348;-74
2021/08/08 00:16:32;;;;;;;3.15;1.77;;;;;;;;;;8259114;28;20460;-74
2021/08/08 00:20:38;;;;;;;5.40;1.58;;;;;;;;;;8241394;28;20360;-73
2021/08/08 00:24:43;;;;;;;2.38;1.48;;;;;;;;;;8258311;28;20475;-73
2021/08/08 00:28:49;;;;;;;3.17;1.80;;;;;;;;;;8258390;28;20471;-74
2021/08/08 00:32:55;;;;;;;2.85;1.67;;;;;;;;;;8225411;28;20383;-75
2021/08/08 00:37:14;;;;;;;3.45;1.50;;;;;;;;;;8261366;28;20360;-73
2021/08/08 00:41:20;;;;;;;1.98;1.33;;;;;;;;;;8240508;28;20478;-73
2021/08/08 00:45:27;;;;;;;3.97;1.80;;;;;;;;;;8259144;28;20467;-74
2021/08/08 00:49:44;;;;;;;10.07;1.65;;;;;;;;;;8239019;28;20452;-73
2021/08/08 00:53:51;;;;;;;3.55;1.40;;;;;;;;;;8225357;28;20363;-73
2021/08/08 00:57:56;;;;;;;5.00;1.77;;;;;;;;;;8240751;28;20367;-73
2021/08/08 01:02:03;;;;;;;2.50;1.42;;;;;;;;;;8224813;28;20472;-73
2021/08/08 01:06:47;;;;;;;2.50;1.60;;;;;;;;;;8223760;28;20053;-73
2021/08/08 01:10:54;;;;;;;3.15;1.58;;;;;;;;;;8239460;28;20339;-73
2021/08/08 01:15:01;;;;;;;2.30;1.52;;;;;;;;;;8240141;28;20340;-73
2021/08/08 01:19:09;;;;;;;2.42;1.65;;;;;;;;;;8255744;28;20522;-72
2021/08/08 01:23:15;;;;;;;4.05;1.50;;;;;;;;;;8223902;28;20506;-73
2021/08/08 01:27:22;;;;;;;1.90;1.48;;;;;;;;;;8256823;28;20468;-72
2021/08/08 01:31:28;;;;;;;2.13;1.45;;;;;;;;;;8225846;28;20444;-73
2021/08/08 01:35:35;;;;;;;2.25;1.73;;;;;;;;;;8239631;28;20055;-73
2021/08/08 01:39:43;;;;;;;3.87;2.00;;;;;;;;;;8240291;28;20439;-73
2021/08/08 01:43:51;;;;;;;3.03;1.77;;;;;;;;;;8263841;28;20363;-73
2021/08/08 01:48:02;;;;;;;2.28;1.50;;;;;;;;;;8231325;28;20491;-73
2021/08/08 01:52:09;;;;;;;3.15;1.70;;;;;;;;;;8246535;28;20499;-73
2021/08/08 01:56:26;;;;;;;4.20;1.20;;;;;;;;;;8245449;28;20349;-73
2021/08/08 02:00:32;;;;;;;3.38;1.80;;;;;;;;;;8245232;28;20037;-73
2021/08/08 02:04:52;;;;;;;3.47;1.58;;;;;;;;;;8228103;28;20507;-74
2021/08/08 02:08:57;;;;;;;2.50;1.30;;;;;;;;;;8244968;28;20479;-73
2021/08/08 02:13:04;;;;;;;2.85;1.40;;;;;;;;;;8245697;28;20391;-73
2021/08/08 02:17:09;;;;;;;3.83;1.60;;;;;;;;;;8243779;28;20072;-73
2021/08/08 02:21:18;;;;;;;2.53;1.50;;;;;;;;;;8263209;28;20502;-72
2021/08/08 02:25:25;;;;;;;4.70;1.57;;;;;;;;;;8276733;28;20456;-73
2021/08/08 02:29:31;;;;;;;2.80;1.30;;;;;;;;;;8295352;28;20080;-73
2021/08/08 02:33:37;;;;;;;2.15;1.55;;;;;;;;;;8261413;28;20478;-72
2021/08/08 02:37:43;;;;;;;2.30;1.50;;;;;;;;;;8293695;28;20348;-72
2021/08/08 02:41:50;;;;;;;2.03;1.38;;;;;;;;;;8277034;28;20062;-73
2021/08/08 02:45:55;;;;;;;4.60;1.40;;;;;;;;;;8276782;28;20563;-72
2021/08/08 02:50:01;;;;;;;3.03;1.40;;;;;;;;;;8295222;28;20467;-73
2021/08/08 02:54:07;;;;;;;1.88;1.23;;;;;;;;;;8259324;28;20367;-73
2021/08/08 02:58:12;;;;;;;1.60;1.25;;;;;;;;;;8259215;28;20469;-72
2021/08/08 03:02:18;;;;;;;2.75;1.23;;;;;;;;;;8275028;28;20066;-73
2021/08/08 03:06:24;;;;;;;3.92;1.73;;;;;;;;;;8294995;28;20045;-73
2021/08/08 03:10:31;;;;;;;4.35;1.65;;;;;;;;;;8276754;28;20479;-72
2021/08/08 03:14:37;;;;;;;5.57;1.98;;;;;;;;;;8277769;28;20337;-72
2021/08/08 03:18:42;;;;;;;3.78;2.03;;;;;;;;;;8259160;28;20367;-72
2021/08/08 03:22:49;;;;;;;4.85;2.08;;;;;;;;;;8291293;28;20472;-72
2021/08/08 03:26:54;;;;;;;2.88;1.60;;;;;;;;;;8275243;28;20074;-73
2021/08/08 03:30:59;;;;;;;2.58;1.50;;;;;;;;;;8259693;28;20485;-74
2021/08/08 03:35:07;;;;;;;3.40;1.70;;;;;;;;;;8295023;28;20490;-72
2021/08/08 03:39:12;;;;;;;3.08;1.90;;;;;;;;;;8275581;28;20337;-72
2021/08/08 03:43:20;;;;;;;8.68;1.77;;;;;;;;;;8275352;28;20068;-72
2021/08/08 03:47:27;;;;;;;4.53;1.67;;;;;;;;;;8291569;28;20048;-73
2021/08/08 03:51:33;;;;;;;7.18;1.73;;;;;;;;;;8274598;28;20467;-73
2021/08/08 03:55:38;;;;;;;1.83;1.40;;;;;;;;;;8258367;28;20040;-72
2021/08/08 03:59:44;;;;;;;6.60;1.70;;;;;;;;;;8241951;28;20479;-73
2021/08/08 04:03:48;;;;;;;7.50;1.50;;;;;;;;;;8273251;28;20459;-73
2021/08/08 04:07:53;;;;;;;4.60;1.40;;;;;;;;;;8272524;28;20394;-73
2021/08/08 04:11:59;;;;;;;6.32;1.42;;;;;;;;;;8274832;28;20383;-71
2021/08/08 04:16:06;;;;;;;4.53;0.80;;;;;;;;;;8274303;28;20367;-72
2021/08/08 04:20:13;;;;;;;3.13;0.75;;;;;;;;;;8263901;28;20079;-72
2021/08/08 04:24:18;;;;;;;1.90;0.50;;;;;;;;;;8241119;28;20456;-71
2021/08/08 04:28:25;;;;;;;1.67;0.90;;;;;;;;;;8225395;28;20494;-72
2021/08/08 04:32:29;;;;;;;5.78;0.93;;;;;;;;;;8241124;28;20359;-71
2021/08/08 04:36:36;;;;;;;3.63;0.70;;;;;;;;;;8240252;28;20052;-72
2021/08/08 04:40:42;;;;;;;2.83;1.40;;;;;;;;;;8239410;28;20049;-73
2021/08/08 04:44:47;;;;;;;3.53;0.88;;;;;;;;;;8240755;28;20363;-72
2021/08/08 04:48:53;;;;;;;2.13;0.90;;;;;;;;;;8257729;28;20344;-72
2021/08/08 04:52:58;;;;;;;1.35;0.60;;;;;;;;;;8239721;28;20037;-72
2021/08/08 04:57:05;;;;;;;1.30;0.50;;;;;;;;;;8239840;28;20439;-71
2021/08/08 05:01:10;;;;;;;1.25;0.88;;;;;;;;;;8239745;28;20048;-72
2021/08/08 05:05:17;;;;;;;1.10;0.40;;;;;;;;;;8256599;28;20491;-71
2021/08/08 05:09:24;;;;;;;;;;;;;;;;;;8225016;28;20448;-73
2021/08/08 05:13:29;;;;;;;3.40;1.40;;;;;;;;;;8239948;28;19920;-72
2021/08/08 05:17:38;;;;;;;5.75;1.60;;;;;;;;;;8240199;28;20468;-71
2021/08/08 05:21:44;;;;;;;3.17;1.45;;;;;;;;;;8245542;28;20355;-71
2021/08/08 05:25:49;;;;;;;2.97;1.48;;;;;;;;;;8288424;28;20048;-73
2021/08/08 05:29:55;;;;;;;6.20;1.60;;;;;;;;;;8273657;28;20041;-72
2021/08/08 05:34:00;;;;;;;6.65;2.08;;;;;;;;;;8289444;28;20463;-73
2021/08/08 05:38:06;;;;;;;2.63;1.30;;;;;;;;;;8255236;28;20345;-72
2021/08/08 05:42:12;;;;;;;3.10;1.40;;;;;;;;;;8287907;28;20351;-74
2021/08/08 05:46:17;;;;;;;3.72;1.40;;;;;;;;;;8290315;28;20056;-74
2021/08/08 05:50:22;;;;;;;5.57;1.92;;;;;;;;;;8239268;28;20328;-72
2021/08/08 05:54:30;;;;;;;7.75;2.72;;;;;;;;;;8289080;28;20502;-73
2021/08/08 05:58:35;;;;;;;4.93;2.13;;;;;;;;;;8256441;28;20493;-74
2021/08/08 06:02:41;;;;;;;3.13;1.80;;;;;;;;;;8255901;28;20356;-73
2021/08/08 06:06:51;;;;;;;2.75;1.48;;;;;;;;;;8286256;28;20383;-72
2021/08/08 06:10:56;;;;;;;3.38;1.05;;;;;;;;;;8270854;28;20479;-74
2021/08/08 06:15:01;;;;;;;3.25;0.98;;;;;;;;;;8271540;28;20487;-72
2021/08/08 06:19:06;;;;;;;1.38;0.82;;;;;;;;;;8287591;28;20040;-71
2021/08/08 06:23:11;;;;;;;1.40;1.02;;;;;;;;;;8237419;28;20065;-73
2021/08/08 06:27:17;;;;;;;4.22;1.05;;;;;;;;;;8223028;28;20379;-73
2021/08/08 06:31:23;;;;;;;1.10;0.98;;;;;;;;;;8263223;28;20391;-73
2021/08/08 06:35:29;;;;;;;1.60;1.00;;;;;;;;;;8227080;28;20376;-74
2021/08/08 06:39:35;;;;;;;1.25;0.90;;;;;;;;;;8260782;28;20432;-72
2021/08/08 06:43:40;;;;;;;3.70;0.82;;;;;;;;;;8244055;28;20336;-72
2021/08/08 06:47:47;;;;;;;2.08;0.95;;;;;;;;;;8244638;28;20475;-73
2021/08/08 06:51:53;;;;;;;0.80;0.63;;;;;;;;;;8243941;28;20048;-72
2021/08/08 06:56:00;;;;;;;1.63;0.70;;;;;;;;;;8244490;28;20346;-72
2021/08/08 07:00:09;;;;;;;2.88;0.90;;;;;;;;;;8229051;28;20499;-73
2021/08/08 07:04:14;;;;;;;0.95;0.80;;;;;;;;;;8243044;28;20402;-73
2021/08/08 07:08:20;;;;;;;1.27;0.70;;;;;;;;;;8261398;28;20333;-72
2021/08/08 07:12:25;;;;;;;1.23;0.80;;;;;;;;;;8243665;28;20475;-73
2021/08/08 07:16:31;;;;;;;1.20;0.70;;;;;;;;;;8243314;28;20071;-73
2021/08/08 07:20:36;;;;;;;1.63;0.90;;;;;;;;;;8242647;28;20379;-72
2021/08/08 07:24:42;;;;;;;0.82;0.73;;;;;;;;;;8227453;28;20525;-72
2021/08/08 07:28:48;;;;;;;1.60;0.80;;;;;;;;;;8244161;28;20465;-73
2021/08/08 07:32:56;;;;;;;0.63;0.50;;;;;;;;;;8261100;28;20467;-73
2021/08/08 07:37:01;;;;;;;1.55;0.93;;;;;;;;;;8226004;28;20472;-73
2021/08/08 07:41:11;;;;;;;1.42;0.63;;;;;;;;;;8225040;28;20049;-72
2021/08/08 07:45:18;;;;;;;1.30;0.77;;;;;;;;;;8242525;28;20448;-72
2021/08/08 07:49:24;;;;;;;2.83;0.90;;;;;;;;;;8242773;28;20363;-73
2021/08/08 07:53:29;;;;;;;1.23;0.60;;;;;;;;;;8241779;28;20037;-73
2021/08/08 07:57:35;;;;;;;0.80;0.68;;;;;;;;;;8258770;28;20472;-73
2021/08/08 08:01:41;;;;;;;1.17;0.77;;;;;;;;;;8241422;28;20391;-73
2021/08/08 08:05:47;;;;;;;0.90;0.80;;;;;;;;;;8240283;28;20040;-72
2021/08/08 08:09:53;;;;;;;2.10;0.90;;;;;;;;;;8241048;28;20367;-73
2021/08/08 08:13:58;;;;;;;1.50;0.80;;;;;;;;;;8241296;28;20463;-73
2021/08/08 08:18:04;;;;;;;2.58;0.90;;;;;;;;;;8240429;28;20376;-72
2021/08/08 08:22:09;;;;;;;2.88;0.90;;;;;;;;;;8257266;28;20065;-73
2021/08/08 08:26:14;;;;;;;3.30;1.10;;;;;;;;;;8240419;28;20472;-72
2021/08/08 08:30:20;;;;;;;2.50;0.85;;;;;;;;;;8242212;28;20494;-71
2021/08/08 08:34:25;;;;;;;2.10;0.75;;;;;;;;;;8240592;28;20475;-72
2021/08/08 08:38:31;;;;;;;1.00;0.73;;;;;;;;;;8239180;28;20476;-71
2021/08/08 08:42:50;;;;;;;1.27;0.75;;;;;;;;;;8225614;28;20456;-71
2021/08/08 08:46:57;;;;;;;4.47;0.80;;;;;;;;;;8240305;28;20475;-71
2021/08/08 08:51:05;;;;;;;1.08;0.80;;;;;;;;;;8223418;28;20059;-72
2021/08/08 08:55:12;;;;;;;1.15;0.85;;;;;;;;;;8257578;28;20048;-72
2021/08/08 08:59:18;;;;;;;1.80;0.80;;;;;;;;;;8255185;28;20468;-71
2021/08/08 09:03:25;;;;;;;1.35;0.85;;;;;;;;;;8260272;28;20391;-71
2021/08/08 09:07:31;;;;;;;9.25;4.78;;;;;;;;;;8221996;28;20375;-72
2021/08/08 09:11:48;;;;;;;1.95;0.88;;;;;;;;;;8239630;28;20436;-72
2021/08/08 09:15:56;;;;;;;1.10;0.80;;;;;;;;;;8224193;28;20048;-71
2021/08/08 09:20:10;;;;;;;0.88;0.63;;;;;;;;;;8237416;28;20056;-72
2021/08/08 09:24:29;;;;;;;0.77;0.70;;;;;;;;;;8238940;28;20033;-72
2021/08/08 09:28:35;;;;;;;1.90;0.98;;;;;;;;;;8238689;28;20371;-72
2021/08/08 09:32:40;;;;;;;5.75;0.70;;;;;;;;;;8222844;28;20474;-72
2021/08/08 09:36:45;;;;;;;0.70;0.52;;;;;;;;;;8256766;28;20428;-72
2021/08/08 09:41:01;;;;;;;1.05;0.50;;;;;;;;;;8256160;28;20156;-72
2021/08/08 09:45:08;;;;;;;1.35;0.70;;;;;;;;;;8238964;28;20071;-71
2021/08/08 09:49:14;;;;;;;1.33;0.73;;;;;;;;;;8170950;28;20483;-71
2021/08/08 09:53:21;;;;;;;1.55;0.77;;;;;;;;;;8186837;28;20504;-71
2021/08/08 09:57:26;;;;;;;;;;;;;;;;;;8188185;28;20077;-72
2021/08/08 10:01:36;;;;;;;1.92;0.98;;;;;;;;;;8186914;28;20375;-72
2021/08/08 10:05:46;;;;;;;1.73;0.82;;;;;;;;;;8160840;28;20476;-72
2021/08/08 10:09:51;;;;;;;0.70;0.52;;;;;;;;;;8176535;28;20568;-71
2021/08/08 10:14:02;;;;;;;1.17;0.80;;;;;;;;;;8176856;28;20473;-72
2021/08/08 10:18:09;;;;;;;0.70;0.60;;;;;;;;;;8161234;28;20465;-72
2021/08/08 10:22:19;;;;;;;2.67;1.13;;;;;;;;;;8175674;28;20416;-72
2021/08/08 10:26:26;;;;;;;1.90;0.70;;;;;;;;;;8216021;28;20393;-71
2021/08/08 10:30:34;;;;;;;1.60;0.80;;;;;;;;;;8244769;28;20598;-71
2021/08/08 10:34:39;;;;;;;1.20;0.80;;;;;;;;;;8244683;28;20072;-71
2021/08/08 10:38:45;;;;;;;1.83;1.00;;;;;;;;;;8262458;28;20441;-72
2021/08/08 10:42:50;;;;;;;1.52;0.88;;;;;;;;;;8262430;28;20049;-71
2021/08/08 10:46:56;;;;;;;3.92;0.90;;;;;;;;;;8260127;28;20072;-72
2021/08/08 10:51:02;;;;;;;1.03;0.70;;;;;;;;;;8212807;28;20472;-72
2021/08/08 10:55:21;;;;;;;0.88;0.70;;;;;;;;;;8229353;28;20056;-72
2021/08/08 10:59:27;;;;;;;0.60;0.50;;;;;;;;;;8245328;28;20067;-72
2021/08/08 11:03:32;;;;;;;1.77;1.25;;;;;;;;;;8262136;28;20482;-72
2021/08/08 11:07:38;;;;;;;2.47;0.68;;;;;;;;;;8243300;28;20083;-72
2021/08/08 11:11:43;;;;;;;3.20;0.90;;;;;;;;;;8243739;28;20490;-71
2021/08/08 11:15:51;;;;;;;1.05;0.68;;;;;;;;;;8242576;28;20041;-71
2021/08/08 11:19:57;;;;;;;2.00;1.02;;;;;;;;;;8242898;28;20492;-72
2021/08/08 11:24:06;;;;;;;1.33;0.95;;;;;;;;;;8242002;28;20498;-72
2021/08/08 11:28:18;;;;;;;1.70;0.93;;;;;;;;;;8261155;28;20482;-72
2021/08/08 11:32:32;;;;;;;1.88;1.10;;;;;;;;;;8243019;28;20359;-72
2021/08/08 11:36:41;;;;;;;1.35;0.90;;;;;;;;;;8260254;28;20490;-72
2021/08/08 11:40:48;;;;;;;1.75;0.70;;;;;;;;;;8260821;28;20491;-73
2021/08/08 11:44:54;;;;;;;2.50;0.80;;;;;;;;;;8242580;28;20476;-72
2021/08/08 11:48:59;;;;;;;1.30;0.90;;;;;;;;;;8259150;28;20475;-72
2021/08/08 11:53:07;;;;;;;2.72;0.80;;;;;;;;;;8259919;28;20475;-72
2021/08/08 11:57:26;;;;;;;1.70;0.63;;;;;;;;;;8259855;28;20368;-70
2021/08/08 12:01:31;;;;;;;0.40;0.40;;;;;;;;;;8241052;28;20460;-72
2021/08/08 12:05:39;;;;;;;0.57;0.45;;;;;;;;;;8241501;28;20460;-72
2021/08/08 12:09:50;;;;;;;0.73;0.45;;;;;;;;;;8241144;28;20356;-75
2021/08/08 12:14:08;;;;;;;5.25;0.50;;;;;;;;;;8257925;28;20485;-72
2021/08/08 12:18:15;;;;;;;0.65;0.55;;;;;;;;;;8260787;28;20049;-73
2021/08/08 12:22:26;;;;;;;0.75;0.40;;;;;;;;;;8265549;28;20360;-72
2021/08/08 12:26:31;;;;;;;3.08;0.90;;;;;;;;;;8271942;28;20386;-72
2021/08/08 12:30:37;;;;;;;4.28;0.85;;;;;;;;;;8257775;28;20359;-71
2021/08/08 12:34:45;;;;;;;3.28;0.68;;;;;;;;;;8291427;28;20463;-72
2021/08/08 12:38:52;;;;;;;1.27;0.70;;;;;;;;;;8257565;28;20048;-71
2021/08/08 12:43:03;;;;;;;;;;;;;;;;;;8276486;28;20036;-72
2021/08/08 12:47:10;;;;;;;1.38;0.70;;;;;;;;;;8290419;28;20239;-71
2021/08/08 12:51:15;;;;;;;1.47;0.93;;;;;;;;;;8292458;28;20321;-71
2021/08/08 12:55:21;;;;;;;0.75;0.55;;;;;;;;;;8289727;28;20075;-72
2021/08/08 12:59:26;;;;;;;0.70;0.40;;;;;;;;;;8273254;28;20468;-73
2021/08/08 13:03:32;;;;;;;0.77;0.52;;;;;;;;;;8272842;28;20495;-72
2021/08/08 13:07:37;;;;;;;0.85;0.40;;;;;;;;;;8271772;28;20493;-71
2021/08/08 13:11:42;;;;;;;0.88;0.73;;;;;;;;;;8290052;28;20505;-72
2021/08/08 13:15:47;;;;;;;0.63;0.60;;;;;;;;;;8290845;28;20439;-73
2021/08/08 13:19:53;;;;;;;0.70;0.60;;;;;;;;;;8284623;28;20472;-72
2021/08/08 13:23:58;;;;;;;4.53;0.90;;;;;;;;;;8256980;28;20063;-72
2021/08/08 13:28:03;;;;;;;2.20;0.75;;;;;;;;;;8256897;28;20510;-72
2021/08/08 13:32:08;;;;;;;0.45;0.43;;;;;;;;;;8258744;28;20452;-72
2021/08/08 13:36:14;;;;;;;1.10;0.55;;;;;;;;;;8259627;28;20448;-72
2021/08/08 13:40:20;;;;;;;1.52;0.57;;;;;;;;;;8247935;28;20067;-72
2021/08/08 13:44:25;;;;;;;0.38;0.38;;;;;;;;;;8247314;28;20455;-73
2021/08/08 13:48:30;;;;;;;0.50;0.38;;;;;;;;;;8263270;28;20337;-71
2021/08/08 13:52:36;;;;;;;1.52;0.80;;;;;;;;;;8263216;28;20063;-71
2021/08/08 13:56:41;;;;;;;2.15;0.85;;;;;;;;;;8245752;28;20375;-71
2021/08/08 14:00:46;;;;;;;0.70;0.50;;;;;;;;;;8245007;28;20464;-72
2021/08/08 14:04:52;;;;;;;2.83;0.80;;;;;;;;;;8263453;28;20518;-72
2021/08/08 14:08:58;;;;;;;0.40;0.40;;;;;;;;;;8244668;28;20468;-72
2021/08/08 14:13:04;;;;;;;1.30;0.43;;;;;;;;;;8265461;28;20041;-72
2021/08/08 14:17:10;;;;;;;1.45;0.60;;;;;;;;;;8262849;28;20399;-72
2021/08/08 14:21:15;;;;;;;0.63;0.50;;;;;;;;;;8262538;28;20513;-72
2021/08/08 14:25:20;;;;;;;0.57;0.45;;;;;;;;;;8263230;28;20387;-72
2021/08/08 14:29:25;;;;;;;0.55;0.40;;;;;;;;;;8259923;28;20362;-72
2021/08/08 14:33:31;;;;;;;0.68;0.52;;;;;;;;;;8261907;28;20053;-72
2021/08/08 14:37:36;;;;;;;1.17;0.40;;;;;;;;;;8242266;28;20356;-72
2021/08/08 14:41:41;;;;;;;0.73;0.43;;;;;;;;;;8262032;28;20355;-71
2021/08/08 14:45:47;;;;;;;1.40;0.65;;;;;;;;;;8262239;28;20049;-73
2021/08/08 14:49:52;;;;;;;2.95;0.70;;;;;;;;;;8261237;28;20037;-72
2021/08/08 14:53:57;;;;;;;2.05;0.40;;;;;;;;;;8261500;28;20080;-71
2021/08/08 14:58:02;;;;;;;0.73;0.60;;;;;;;;;;8261727;28;20379;-72
2021/08/08 15:02:08;;;;;;;0.73;0.50;;;;;;;;;;8203747;28;20363;-72
2021/08/08 15:06:14;;;;;;;0.93;0.55;;;;;;;;;;8208437;28;20335;-72
2021/08/08 15:10:19;;;;;;;1.27;0.70;;;;;;;;;;8228326;28;20049;-71
2021/08/08 15:14:25;;;;;;;2.92;0.85;;;;;;;;;;8227912;28;20433;-72
2021/08/08 15:18:30;;;;;;;4.25;0.93;;;;;;;;;;8150813;28;20326;-73
2021/08/08 15:22:35;;;;;;;1.40;0.70;;;;;;;;;;8204959;28;20511;-72
2021/08/08 15:26:42;;;;;;;4.85;1.05;;;;;;;;;;8200013;28;20038;-72
2021/08/08 15:30:47;;;;;;;5.10;1.00;;;;;;;;;;8200775;28;20350;-72
2021/08/08 15:34:54;;;;;;;1.90;1.00;;;;;;;;;;8197252;28;20329;-71
2021/08/08 15:39:00;;;;;;;2.22;0.90;;;;;;;;;;8193550;28;20060;-71
2021/08/08 15:43:05;;;;;;;1.73;0.88;;;;;;;;;;8193638;28;20329;-72
2021/08/08 15:47:11;;;;;;;3.92;1.13;;;;;;;;;;8193666;28;20376;-72
2021/08/08 15:51:17;;;;;;;1.43;0.90;;;;;;;;;;8193782;28;20046;-72
2021/08/08 15:55:22;;;;;;;2.95;1.02;;;;;;;;;;8178508;28;20480;-71
2021/08/08 15:59:27;;;;;;;3.78;0.85;;;;;;;;;;8196540;28;20491;-72
2021/08/08 16:03:33;;;;;;;4.00;1.20;;;;;;;;;;8194809;28;20361;-72
2021/08/08 16:07:39;;;;;;;2.00;1.00;;;;;;;;;;8209549;28;20054;-72
2021/08/08 16:11:44;;;;;;;4.55;1.85;;;;;;;;;;8194272;28;20464;-72
2021/08/08 16:15:50;;;;;;;3.55;1.27;;;;;;;;;;8193984;28;20465;-73
2021/08/08 16:19:55;;;;;;;5.53;1.10;;;;;;;;;;8202275;28;20686;-72
2021/08/08 16:24:00;;;;;;;2.35;1.10;;;;;;;;;;8258834;28;20523;-71
2021/08/08 16:28:06;;;;;;;6.82;1.65;;;;;;;;;;8241020;28;20938;-73
2021/08/08 16:32:11;;;;;;;4.35;1.55;;;;;;;;;;8258414;28;20498;-71
2021/08/08 16:36:17;;;;;;;2.22;1.20;;;;;;;;;;8241266;28;20468;-72
2021/08/08 16:40:22;;;;;;;2.08;1.20;;;;;;;;;;8239216;28;20071;-72
2021/08/08 16:44:28;;;;;;;4.53;1.50;;;;;;;;;;8241298;28;20498;-72
2021/08/08 16:48:33;;;;;;;4.47;2.08;;;;;;;;;;8257655;28;20199;-72
2021/08/08 16:52:40;;;;;;;8.57;5.07;;;;;;;;;;8258066;28;20387;-72
2021/08/08 16:56:43;;;;;;;4.35;2.90;;;;;;;;;;8249012;28;20071;-72
2021/08/08 17:00:48;;;;;;;4.53;2.75;;;;;;;;;;8272313;28;20489;-71
2021/08/08 17:04:52;;;;;;;4.50;2.55;;;;;;;;;;8250323;28;20041;-71
2021/08/08 17:08:57;;;;;;;6.03;2.33;;;;;;;;;;8275487;28;20542;-72
2021/08/08 17:13:01;;;;;;;6.38;2.22;;;;;;;;;;8273173;28;20487;-71
2021/08/08 17:17:06;;;;;;;11.45;4.43;;;;;;;;;;8272230;28;20040;-72
2021/08/08 17:21:11;;;;;;;6.50;3.75;;;;;;;;;;8270170;28;20480;-72
2021/08/08 17:25:19;;;;;;;3.95;2.95;;;;;;;;;;8249555;28;20487;-71
2021/08/08 17:29:23;;;;;;;5.65;2.85;;;;;;;;;;8289223;28;20379;-72
2021/08/08 17:33:27;;;;;;;5.88;2.78;;;;;;;;;;8270769;28;20062;-71
2021/08/08 17:37:30;;;;;;;4.60;2.70;;;;;;;;;;8271335;28;20060;-71
2021/08/08 17:41:36;;;;;;;6.80;2.97;;;;;;;;;;8288183;28;20475;-71
2021/08/08 17:45:40;;;;;;;5.30;3.30;;;;;;;;;;8259501;28;20342;-71
2021/08/08 17:49:44;;;;;;;5.90;2.80;;;;;;;;;;8239175;28;20376;-71
2021/08/08 17:53:50;;;;;;;10.18;5.80;;;;;;;;;;8259481;28;20382;-71
2021/08/08 17:57:55;;;;;;;13.23;8.25;;;;;;;;;;8275985;28;20374;-72
2021/08/08 18:02:00;;;;;;;18.42;11.70;;;;;;;;;;8290800;28;20344;-71
2021/08/08 18:06:06;;;;;;;8.35;5.50;;;;;;;;;;8288587;28;20501;-71
2021/08/08 18:10:12;;;;;;;4.90;3.30;;;;;;;;;;8290070;28;20071;-72
2021/08/08 18:14:17;;;;;;;3.40;1.95;;;;;;;;;;8257266;28;20509;-72
2021/08/08 18:18:22;;;;;;;4.05;1.98;;;;;;;;;;8248873;28;20045;-71
2021/08/08 18:22:27;;;;;;;5.55;3.60;;;;;;;;;;8270647;28;20491;-72
2021/08/08 18:26:31;;;;;;;5.57;3.85;;;;;;;;;;8284171;28;20520;-71
2021/08/08 18:30:37;;;;;;;9.23;5.03;;;;;;;;;;8268081;28;20056;-71
2021/08/08 18:34:43;;;;;;;8.88;5.55;;;;;;;;;;8278459;28;20067;-71
2021/08/08 18:38:47;;;;;;;15.93;6.07;;;;;;;;;;8294305;28;20448;-71
2021/08/08 18:42:51;;;;;;;13.20;7.65;;;;;;;;;;8300267;28;20048;-75
2021/08/08 18:46:56;;;;;;;11.00;6.10;;;;;;;;;;8281616;28;20041;-71
2021/08/08 18:51:00;;;;;;;10.85;6.13;;;;;;;;;;8258483;28;20376;-71
2021/08/08 18:55:06;;;;;;;13.93;6.40;;;;;;;;;;8260539;28;20067;-71
2021/08/08 18:59:12;;;;;;;14.02;6.00;;;;;;;;;;8242356;28;20052;-71
2021/08/08 19:03:17;;;;;;;7.82;4.60;;;;;;;;;;8261930;28;20349;-71
2021/08/08 19:07:22;;;;;;;11.00;5.30;;;;;;;;;;8262432;28;20337;-71
2021/08/08 19:11:28;;;;;;;9.05;4.80;;;;;;;;;;8259403;28;20045;-72
2021/08/08 19:15:33;;;;;;;16.35;7.10;;;;;;;;;;8260471;28;20056;-72
2021/08/08 19:19:38;;;;;;;19.45;10.18;;;;;;;;;;8242119;28;20455;-71
2021/08/08 19:23:45;;;;;;;35.33;18.55;;;;;;;;;;8262750;28;20329;-72
2021/08/08 19:27:50;;;;;;;35.22;17.83;;;;;;;;;;8242999;28;20444;-71
2021/08/08 19:31:55;;;;;;;23.58;12.57;;;;;;;;;;8243784;28;20360;-71
2021/08/08 19:36:05;;;;;;;18.60;9.80;;;;;;;;;;8259853;28;20475;-71
2021/08/08 19:40:12;;;;;;;7.10;4.50;;;;;;;;;;8261888;28;20155;-71
2021/08/08 19:44:20;;;;;;;8.68;3.90;;;;;;;;;;8261788;28;20482;-73
2021/08/08 19:48:24;;;;;;;8.13;3.30;;;;;;;;;;8243994;28;20506;-71
2021/08/08 19:52:32;;;;;;;7.35;3.47;;;;;;;;;;8258935;28;20072;-71
2021/08/08 19:56:37;;;;;;;5.55;2.95;;;;;;;;;;8258569;28;20357;-71
2021/08/08 20:00:43;;;;;;;7.65;3.42;;;;;;;;;;8259562;28;20502;-71
2021/08/08 20:04:48;;;;;;;4.95;2.60;;;;;;;;;;8261773;28;20399;-71
2021/08/08 20:08:52;;;;;;;7.13;3.80;;;;;;;;;;8260968;28;20408;-73
2021/08/08 20:12:56;;;;;;;6.82;2.00;;;;;;;;;;8259358;28;20045;-71
2021/08/08 20:17:02;;;;;;;10.10;2.55;;;;;;;;;;8242087;28;20494;-72
2021/08/08 20:21:07;;;;;;;4.75;2.13;;;;;;;;;;8258673;28;20495;-72
2021/08/08 20:25:17;;;;;;;5.15;2.22;;;;;;;;;;8240754;28;20456;-72
2021/08/08 20:29:24;;;;;;;7.85;2.15;;;;;;;;;;8242655;28;20502;-72
2021/08/08 20:33:29;;;;;;;5.72;2.50;;;;;;;;;;8257642;28;20506;-74
2021/08/08 20:37:40;;;;;;;3.47;2.20;;;;;;;;;;8257752;28;20444;-72
2021/08/08 20:41:46;;;;;;;4.70;2.42;;;;;;;;;;8241693;28;20388;-72
2021/08/08 20:45:51;;;;;;;4.70;2.10;;;;;;;;;;8258417;28;20463;-73
2021/08/08 20:49:56;;;;;;;3.97;1.83;;;;;;;;;;8258715;28;20368;-72
2021/08/08 20:54:03;;;;;;;8.85;1.95;;;;;;;;;;8256538;28;20488;-72
2021/08/08 20:58:08;;;;;;;4.53;2.70;;;;;;;;;;8256631;28;20355;-71
2021/08/08 21:02:14;;;;;;;7.13;2.28;;;;;;;;;;8258703;28;20460;-71
2021/08/08 21:06:19;;;;;;;3.40;2.15;;;;;;;;;;8224126;28;20072;-72
2021/08/08 21:10:26;;;;;;;3.40;2.13;;;;;;;;;;8257277;28;20106;-72
2021/08/08 21:14:30;;;;;;;4.45;2.60;;;;;;;;;;8255794;28;20490;-72
2021/08/08 21:18:36;;;;;;;3.55;2.20;;;;;;;;;;8239624;28;20363;-71
2021/08/08 21:28:19;;;;;;;3.65;2.17;;;;;;;;;;8256034;28;20037;-72
2021/08/08 21:32:25;;;;;;;5.25;2.70;;;;;;;;;;8257947;28;20369;-75
2021/08/08 21:36:30;;;;;;;6.30;2.70;;;;;;;;;;8260194;28;20368;-75
2021/08/08 21:40:35;;;;;;;5.93;2.92;;;;;;;;;;8269731;28;20483;-75
2021/08/08 21:44:40;;;;;;;6.60;2.90;;;;;;;;;;8269364;28;20463;-75
2021/08/08 21:48:46;;;;;;;4.75;2.60;;;;;;;;;;8272056;28;20494;-76
2021/08/08 21:52:51;;;;;;;5.50;3.20;;;;;;;;;;8261931;28;20440;-74
2021/08/08 21:56:57;;;;;;;6.68;3.05;;;;;;;;;;8259554;28;20495;-75
2021/08/08 22:01:01;;;;;;;9.35;2.80;;;;;;;;;;8265424;28;20464;-74
2021/08/08 22:05:08;;;;;;;4.90;2.58;;;;;;;;;;8268602;28;20488;-75
2021/08/08 22:09:13;;;;;;;5.55;3.05;;;;;;;;;;8266627;28;20371;-74
2021/08/08 22:13:20;;;;;;;8.77;3.33;;;;;;;;;;8246321;28;20402;-75
2021/08/08 22:17:27;;;;;;;6.22;2.50;;;;;;;;;;8263182;28;20053;-74
2021/08/08 22:21:32;;;;;;;4.60;2.33;;;;;;;;;;8226901;28;20053;-75
2021/08/08 22:25:38;;;;;;;4.38;2.38;;;;;;;;;;8197466;28;20080;-76
2021/08/08 22:29:43;;;;;;;3.50;2.58;;;;;;;;;;8195823;28;20053;-74
2021/08/08 22:33:48;;;;;;;6.60;2.20;;;;;;;;;;8196574;28;20477;-74
2021/08/08 22:37:53;;;;;;;5.25;2.95;;;;;;;;;;8197710;28;20356;-76
2021/08/08 22:41:59;;;;;;;6.55;2.90;;;;;;;;;;8197107;28;20400;-74
2021/08/08 22:46:04;;;;;;;6.03;2.53;;;;;;;;;;8195094;28;20495;-73
2021/08/08 22:50:10;;;;;;;5.75;2.92;;;;;;;;;;8200198;28;20342;-75
2021/08/08 22:54:15;;;;;;;5.70;2.75;;;;;;;;;;8197518;28;20064;-74
2021/08/08 22:58:21;;;;;;;5.43;2.60;;;;;;;;;;8198965;28;20481;-75
2021/08/08 23:02:27;;;;;;;6.68;2.72;;;;;;;;;;8195885;28;20470;-75
2021/08/08 23:06:32;;;;;;;7.88;2.55;;;;;;;;;;8196343;28;20362;-75
2021/08/08 23:10:37;;;;;;;5.57;2.50;;;;;;;;;;8195639;28;20487;-75
2021/08/08 23:14:42;;;;;;;4.60;2.55;;;;;;;;;;8194523;28;20364;-74
2021/08/08 23:18:47;;;;;;;4.22;2.47;;;;;;;;;;8199104;28;20441;-75
2021/08/08 23:22:52;;;;;;;4.55;2.40;;;;;;;;;;8252119;28;20057;-75
2021/08/08 23:26:57;;;;;;;4.35;2.20;;;;;;;;;;8249000;28;20490;-75
2021/08/08 23:31:01;;;;;;;4.35;2.50;;;;;;;;;;8266770;28;20363;-76
2021/08/08 23:35:07;;;;;;;4.65;2.38;;;;;;;;;;8243385;28;20507;-73
2021/08/08 23:39:13;;;;;;;4.72;2.70;;;;;;;;;;8259732;28;20375;-74
2021/08/08 23:43:16;;;;;;;4.45;2.42;;;;;;;;;;8241156;28;20491;-75
2021/08/08 23:47:21;;;;;;;7.95;2.15;;;;;;;;;;8259131;28;20103;-74
2021/08/08 23:51:26;;;;;;;5.03;2.25;;;;;;;;;;8258364;28;20480;-74
2021/08/08 23:55:31;;;;;;;4.63;2.90;;;;;;;;;;8258258;28;20371;-74
2021/08/08 23:59:37;;;;;;;7.18;2.95;;;;;;;;;;8241171;28;20424;-74
